Time;durP1;ratioP1;P1;durP2;ratioP2;P2;SDS_P1;SDS_P2;PMS_P1;PMS_P2;Temp;Humidity;BMP_temperature;BMP_pressure;BME280_temperature;BME280_humidity;BME280_pressure;Samples;Min_cycle;Max_cycle;Signal;HPM_P1;HPM_P2
2022/10/12 00:01:19;;;;;;;12.05;2.90;;;;;;;;;;5082047;28;20409;-90
2022/10/12 00:03:47;;;;;;;13.65;2.70;;;;;;;;;;5090789;28;20418;-90
2022/10/12 00:06:17;;;;;;;10.50;2.47;;;;;;;;;;5090792;28;20429;-90
2022/10/12 00:08:46;;;;;;;12.80;2.50;;;;;;;;;;5088518;28;20414;-90
2022/10/12 00:11:19;;;;;;;9.03;2.40;;;;;;;;;;5088893;28;20905;-90
2022/10/12 00:13:53;;;;;;;11.38;2.58;;;;;;;;;;5087589;28;20425;-91
2022/10/12 00:16:21;;;;;;;9.43;2.45;;;;;;;;;;5091815;28;20425;-91
2022/10/12 00:18:55;;;;;;;9.60;2.80;;;;;;;;;;5097734;28;20410;-90
2022/10/12 00:21:30;;;;;;;11.20;2.85;;;;;;;;;;5085080;28;20775;-90
2022/10/12 00:24:02;;;;;;;10.43;2.60;;;;;;;;;;5080874;28;20884;-90
2022/10/12 00:26:32;;;;;;;12.77;2.80;;;;;;;;;;5084325;28;20419;-90
2022/10/12 00:29:04;;;;;;;9.03;2.90;;;;;;;;;;5084637;28;20421;-89
2022/10/12 00:31:32;;;;;;;8.98;2.67;;;;;;;;;;5088152;28;20411;-90
2022/10/12 00:34:05;;;;;;;16.80;2.65;;;;;;;;;;5100147;28;20778;-90
2022/10/12 00:36:35;;;;;;;8.27;2.53;;;;;;;;;;5097112;28;20413;-91
2022/10/12 00:39:04;;;;;;;9.40;2.33;;;;;;;;;;5070972;28;20423;-90
2022/10/12 00:41:33;;;;;;;9.93;2.50;;;;;;;;;;5090772;28;20421;-90
2022/10/12 00:44:20;;;;;;;6.32;2.38;;;;;;;;;;5084348;28;20418;-90
2022/10/12 00:46:54;;;;;;;8.88;2.25;;;;;;;;;;5087469;28;20433;-90
2022/10/12 00:49:27;;;;;;;8.85;2.35;;;;;;;;;;5088065;28;20794;-90
2022/10/12 00:52:03;;;;;;;7.40;2.28;;;;;;;;;;5079729;28;20425;-90
2022/10/12 00:54:32;;;;;;;8.95;2.30;;;;;;;;;;5089175;28;20413;-90
2022/10/12 00:57:06;;;;;;;7.50;1.98;;;;;;;;;;5084434;28;20870;-91
2022/10/12 00:59:42;;;;;;;12.10;2.40;;;;;;;;;;5090522;28;20413;-91
2022/10/12 01:02:15;;;;;;;10.18;2.40;;;;;;;;;;5090043;28;20422;-90
2022/10/12 01:04:48;;;;;;;11.20;2.60;;;;;;;;;;5090469;28;20413;-91
2022/10/12 01:07:17;;;;;;;8.73;2.30;;;;;;;;;;5089566;28;20414;-90
2022/10/12 01:09:50;;;;;;;7.93;2.33;;;;;;;;;;5079822;28;20434;-90
2022/10/12 01:12:23;;;;;;;8.73;2.58;;;;;;;;;;5086270;28;20419;-89
2022/10/12 01:14:56;;;;;;;11.85;2.80;;;;;;;;;;5084931;28;20429;-90
2022/10/12 01:17:30;;;;;;;7.45;2.40;;;;;;;;;;5091581;28;20409;-91
2022/10/12 01:20:08;;;;;;;9.98;2.70;;;;;;;;;;5081811;28;20416;-90
2022/10/12 01:22:45;;;;;;;11.48;2.70;;;;;;;;;;5077447;28;20427;-90
2022/10/12 01:25:24;;;;;;;7.18;2.35;;;;;;;;;;5081446;28;20425;-90
2022/10/12 01:27:52;;;;;;;12.27;3.25;;;;;;;;;;5090276;28;20426;-90
2022/10/12 01:30:22;;;;;;;8.77;2.40;;;;;;;;;;5091478;28;20409;-90
2022/10/12 01:33:13;;;;;;;8.50;2.53;;;;;;;;;;5089758;28;20422;-89
2022/10/12 01:35:50;;;;;;;11.13;2.40;;;;;;;;;;5091537;28;20894;-88
2022/10/12 01:38:26;;;;;;;7.47;2.63;;;;;;;;;;5089348;28;20418;-90
2022/10/12 01:41:02;;;;;;;7.07;2.28;;;;;;;;;;5093880;28;20417;-90
2022/10/12 01:43:35;;;;;;;8.40;2.35;;;;;;;;;;5088119;28;20413;-90
2022/10/12 01:46:27;;;;;;;5.68;2.10;;;;;;;;;;5085963;28;20433;-90
2022/10/12 01:48:57;;;;;;;12.25;2.33;;;;;;;;;;5089569;28;20434;-91
2022/10/12 01:51:29;;;;;;;11.15;2.50;;;;;;;;;;5087958;28;20403;-90
2022/10/12 01:54:07;;;;;;;9.07;2.50;;;;;;;;;;5083614;28;20428;-90
2022/10/12 01:56:44;;;;;;;9.37;2.67;;;;;;;;;;5087180;28;20414;-90
2022/10/12 01:59:15;;;;;;;7.80;2.22;;;;;;;;;;5084386;28;20421;-90
2022/10/12 02:01:52;;;;;;;6.40;2.20;;;;;;;;;;5103249;28;20418;-90
2022/10/12 02:04:25;;;;;;;9.68;2.35;;;;;;;;;;5094498;28;20410;-90
2022/10/12 02:06:58;;;;;;;7.87;2.27;;;;;;;;;;5093209;28;20414;-90
2022/10/12 02:09:27;;;;;;;6.35;2.17;;;;;;;;;;5100373;28;20417;-90
2022/10/12 02:11:57;;;;;;;6.32;2.20;;;;;;;;;;5089384;28;20429;-90
2022/10/12 02:14:32;;;;;;;6.77;2.20;;;;;;;;;;5094621;28;21005;-89
2022/10/12 02:17:03;;;;;;;9.05;2.70;;;;;;;;;;5081444;28;20410;-90
2022/10/12 02:19:38;;;;;;;9.05;2.80;;;;;;;;;;5080761;28;20419;-91
2022/10/12 02:22:07;;;;;;;8.65;2.75;;;;;;;;;;5090491;28;20414;-90
2022/10/12 02:24:41;;;;;;;9.73;2.72;;;;;;;;;;5092277;28;20750;-91
2022/10/12 02:27:09;;;;;;;11.63;2.77;;;;;;;;;;5097938;28;20443;-90
2022/10/12 02:29:43;;;;;;;17.45;3.08;;;;;;;;;;5082646;28;20447;-90
2022/10/12 02:32:19;;;;;;;11.48;3.10;;;;;;;;;;5098462;28;20425;-90
2022/10/12 02:34:55;;;;;;;12.52;2.85;;;;;;;;;;5094077;28;20407;-91
2022/10/12 02:37:28;;;;;;;12.10;3.05;;;;;;;;;;5100987;28;20412;-90
2022/10/12 02:40:03;;;;;;;9.73;2.90;;;;;;;;;;5073254;28;20435;-90
2022/10/12 02:42:32;;;;;;;15.50;3.10;;;;;;;;;;5099666;28;20426;-91
2022/10/12 02:45:06;;;;;;;8.48;2.40;;;;;;;;;;5097490;28;20425;-90
2022/10/12 02:47:34;;;;;;;9.63;2.55;;;;;;;;;;5085698;28;20424;-90
2022/10/12 02:50:10;;;;;;;9.05;2.58;;;;;;;;;;5089884;28;21066;-90
2022/10/12 02:52:43;;;;;;;7.90;2.10;;;;;;;;;;5093367;28;20398;-90
2022/10/12 02:55:11;;;;;;;14.60;2.70;;;;;;;;;;5083684;28;20412;-90
2022/10/12 02:57:39;;;;;;;7.83;2.50;;;;;;;;;;5092311;28;20409;-89
2022/10/12 03:00:12;;;;;;;10.15;2.50;;;;;;;;;;5085376;28;20445;-90
2022/10/12 03:02:45;;;;;;;12.05;3.03;;;;;;;;;;5092264;28;20425;-89
2022/10/12 03:05:19;;;;;;;8.02;2.40;;;;;;;;;;5071965;28;20420;-90
2022/10/12 03:07:51;;;;;;;10.68;2.47;;;;;;;;;;5077216;28;20425;-90
2022/10/12 03:10:24;;;;;;;7.15;2.28;;;;;;;;;;5100153;28;20414;-89
2022/10/12 03:12:57;;;;;;;12.00;3.00;;;;;;;;;;5084094;28;20920;-89
2022/10/12 03:15:30;;;;;;;6.03;2.30;;;;;;;;;;5089038;28;20669;-89
2022/10/12 03:17:58;;;;;;;8.20;2.63;;;;;;;;;;5085969;28;20454;-90
2022/10/12 03:20:32;;;;;;;7.72;2.40;;;;;;;;;;5082945;28;20433;-90
2022/10/12 03:23:00;;;;;;;7.63;2.50;;;;;;;;;;5091313;28;20418;-90
2022/10/12 03:25:27;;;;;;;9.88;2.30;;;;;;;;;;5084140;28;20432;-89
2022/10/12 03:27:55;;;;;;;9.18;2.35;;;;;;;;;;5078960;28;20426;-89
2022/10/12 03:30:28;;;;;;;7.40;2.42;;;;;;;;;;5080572;28;21119;-90
2022/10/12 03:33:00;;;;;;;8.52;2.50;;;;;;;;;;5091510;28;20425;-90
2022/10/12 03:35:35;;;;;;;5.85;2.22;;;;;;;;;;5087478;28;20426;-89
2022/10/12 03:38:02;;;;;;;8.23;2.35;;;;;;;;;;5095545;28;20778;-90
2022/10/12 03:40:35;;;;;;;8.52;2.70;;;;;;;;;;5078953;28;20420;-91
2022/10/12 03:43:03;;;;;;;9.02;2.80;;;;;;;;;;5080297;28;20411;-90
2022/10/12 03:45:36;;;;;;;9.33;2.20;;;;;;;;;;5091176;28;20416;-90
2022/10/12 03:48:04;;;;;;;9.13;2.40;;;;;;;;;;5095952;28;20438;-90
2022/10/12 03:50:33;;;;;;;9.13;2.58;;;;;;;;;;5080255;28;20418;-90
2022/10/12 03:53:03;;;;;;;13.25;2.45;;;;;;;;;;5071898;28;20423;-91
2022/10/12 03:55:31;;;;;;;10.13;3.30;;;;;;;;;;5097320;28;20425;-90
2022/10/12 03:58:04;;;;;;;16.02;3.38;;;;;;;;;;5091312;28;20406;-90
2022/10/12 04:00:32;;;;;;;11.60;3.00;;;;;;;;;;5089435;28;20423;-90
2022/10/12 04:03:00;;;;;;;13.15;3.22;;;;;;;;;;5086875;28;20422;-90
2022/10/12 04:05:33;;;;;;;12.90;3.05;;;;;;;;;;5084959;28;20425;-90
2022/10/12 04:08:08;;;;;;;12.68;3.03;;;;;;;;;;5083362;28;20414;-90
2022/10/12 04:10:35;;;;;;;14.32;2.88;;;;;;;;;;5090751;28;20427;-90
2022/10/12 04:13:08;;;;;;;12.55;3.28;;;;;;;;;;5080570;28;20416;-89
2022/10/12 04:15:36;;;;;;;9.20;3.10;;;;;;;;;;5089366;28;20414;-89
2022/10/12 04:18:04;;;;;;;10.65;3.20;;;;;;;;;;5089890;28;20402;-90
2022/10/12 04:20:32;;;;;;;11.23;3.08;;;;;;;;;;5097837;28;20410;-90
2022/10/12 04:23:00;;;;;;;8.05;2.80;;;;;;;;;;5081651;28;20425;-89
2022/10/12 04:25:29;;;;;;;10.80;3.08;;;;;;;;;;5085260;28;20440;-90
2022/10/12 04:27:57;;;;;;;13.35;3.00;;;;;;;;;;5083458;28;20433;-89
2022/10/12 04:30:29;;;;;;;11.00;2.85;;;;;;;;;;5077982;28;20420;-89
2022/10/12 04:32:57;;;;;;;9.15;2.58;;;;;;;;;;5097151;28;20410;-90
2022/10/12 04:35:30;;;;;;;14.85;3.00;;;;;;;;;;5091905;28;20417;-90
2022/10/12 04:38:03;;;;;;;14.25;2.90;;;;;;;;;;5090925;28;20417;-89
2022/10/12 04:40:32;;;;;;;7.38;2.50;;;;;;;;;;5090459;28;20425;-90
2022/10/12 04:43:05;;;;;;;10.88;2.58;;;;;;;;;;5090897;28;20901;-90
2022/10/12 04:45:38;;;;;;;7.93;2.65;;;;;;;;;;5088286;28;20436;-90
2022/10/12 04:48:10;;;;;;;11.53;2.40;;;;;;;;;;5082867;28;20420;-90
2022/10/12 04:50:38;;;;;;;8.95;2.30;;;;;;;;;;5091359;28;20423;-88
2022/10/12 04:53:11;;;;;;;11.88;2.33;;;;;;;;;;5084177;28;20455;-90
2022/10/12 04:55:45;;;;;;;7.35;2.33;;;;;;;;;;5092354;28;20413;-90
2022/10/12 04:58:13;;;;;;;9.90;2.70;;;;;;;;;;5092087;28;20406;-89
2022/10/12 05:00:41;;;;;;;7.88;2.42;;;;;;;;;;5099272;28;20421;-90
2022/10/12 05:03:08;;;;;;;11.75;2.80;;;;;;;;;;5089499;28;20739;-88
2022/10/12 05:05:43;;;;;;;10.88;2.45;;;;;;;;;;5091833;28;20424;-90
2022/10/12 05:08:16;;;;;;;9.85;2.42;;;;;;;;;;5099795;28;20405;-90
2022/10/12 05:10:50;;;;;;;13.30;2.50;;;;;;;;;;5092330;28;20423;-90
2022/10/12 05:13:18;;;;;;;10.15;2.60;;;;;;;;;;5094104;28;20410;-90
2022/10/12 05:15:51;;;;;;;12.95;2.45;;;;;;;;;;5094146;28;20418;-90
2022/10/12 05:18:19;;;;;;;10.13;2.95;;;;;;;;;;5085757;28;20427;-90
2022/10/12 05:20:46;;;;;;;11.73;3.03;;;;;;;;;;5089337;28;20775;-89
2022/10/12 05:23:14;;;;;;;15.60;3.30;;;;;;;;;;5086958;28;20415;-90
2022/10/12 05:25:47;;;;;;;10.48;3.15;;;;;;;;;;5092491;28;20413;-91
2022/10/12 05:28:21;;;;;;;12.35;3.35;;;;;;;;;;5092843;28;20418;-90
2022/10/12 05:30:54;;;;;;;18.33;3.38;;;;;;;;;;5095519;28;20429;-91
2022/10/12 05:33:27;;;;;;;13.25;3.53;;;;;;;;;;5082643;28;20427;-89
2022/10/12 05:36:00;;;;;;;11.75;3.88;;;;;;;;;;5095669;28;20899;-90
2022/10/12 05:38:32;;;;;;;12.63;3.35;;;;;;;;;;5085364;28;20429;-87
2022/10/12 05:41:05;;;;;;;9.23;3.40;;;;;;;;;;5092538;28;20413;-89
2022/10/12 05:43:39;;;;;;;13.50;3.08;;;;;;;;;;5094017;28;20418;-90
2022/10/12 05:46:12;;;;;;;12.07;3.20;;;;;;;;;;5102787;28;20417;-89
2022/10/12 05:48:40;;;;;;;17.77;3.30;;;;;;;;;;5093494;28;20417;-90
2022/10/12 05:51:13;;;;;;;12.35;3.00;;;;;;;;;;5082405;28;20431;-91
2022/10/12 05:53:40;;;;;;;19.60;3.38;;;;;;;;;;5086496;28;20417;-90
2022/10/12 05:56:13;;;;;;;13.35;3.72;;;;;;;;;;5088402;28;20425;-89
2022/10/12 05:58:47;;;;;;;12.15;3.63;;;;;;;;;;5085165;28;20778;-90
2022/10/12 06:01:15;;;;;;;10.20;3.78;;;;;;;;;;5092343;28;20553;-89
2022/10/12 06:03:48;;;;;;;12.10;3.95;;;;;;;;;;5082455;28;20428;-89
2022/10/12 06:06:16;;;;;;;10.88;3.60;;;;;;;;;;5085623;28;20425;-90
2022/10/12 06:08:43;;;;;;;13.38;3.33;;;;;;;;;;5084839;28;20422;-87
2022/10/12 06:11:12;;;;;;;10.27;2.95;;;;;;;;;;5085407;28;20442;-89
2022/10/12 06:13:40;;;;;;;12.80;2.85;;;;;;;;;;5097980;28;20425;-89
2022/10/12 06:16:09;;;;;;;9.55;2.65;;;;;;;;;;5091306;28;20421;-89
2022/10/12 06:18:41;;;;;;;10.35;2.95;;;;;;;;;;5088006;28;20906;-90
2022/10/12 06:21:14;;;;;;;14.38;3.85;;;;;;;;;;5088966;28;20429;-90
2022/10/12 06:23:42;;;;;;;10.50;3.20;;;;;;;;;;5087833;28;20456;-89
2022/10/12 06:26:15;;;;;;;11.93;3.10;;;;;;;;;;5084102;28;20426;-88
2022/10/12 06:28:43;;;;;;;15.75;3.55;;;;;;;;;;5087949;28;20468;-89
2022/10/12 06:31:17;;;;;;;11.63;3.38;;;;;;;;;;5078954;28;20890;-89
2022/10/12 06:33:45;;;;;;;14.60;3.50;;;;;;;;;;5087987;28;20420;-89
2022/10/12 06:36:13;;;;;;;13.90;3.92;;;;;;;;;;5081901;28;20916;-90
2022/10/12 06:38:41;;;;;;;19.33;3.92;;;;;;;;;;5079367;28;20783;-86
2022/10/12 06:41:08;;;;;;;14.00;3.57;;;;;;;;;;5084147;28;20892;-82
2022/10/12 06:43:41;;;;;;;12.33;4.00;;;;;;;;;;5087921;28;20426;-84
2022/10/12 06:46:09;;;;;;;13.33;4.23;;;;;;;;;;5084006;28;20434;-88
2022/10/12 06:48:38;;;;;;;15.18;4.10;;;;;;;;;;5086153;28;20430;-90
2022/10/12 06:51:06;;;;;;;10.52;4.18;;;;;;;;;;5089317;28;20426;-89
2022/10/12 06:53:38;;;;;;;15.10;4.45;;;;;;;;;;5091346;28;20940;-89
2022/10/12 06:56:12;;;;;;;15.70;4.32;;;;;;;;;;5075547;28;20421;-89
2022/10/12 06:58:45;;;;;;;13.75;4.35;;;;;;;;;;5076822;28;20434;-90
2022/10/12 07:01:18;;;;;;;12.48;4.50;;;;;;;;;;5068817;28;20426;-87
2022/10/12 07:03:47;;;;;;;13.73;3.90;;;;;;;;;;5077685;28;21079;-86
2022/10/12 07:06:15;;;;;;;15.00;3.97;;;;;;;;;;5070593;28;21229;-85
2022/10/12 07:08:49;;;;;;;13.10;4.10;;;;;;;;;;5073521;28;20418;-91
2022/10/12 07:11:16;;;;;;;12.93;4.40;;;;;;;;;;5075090;28;20440;-91
2022/10/12 07:13:49;;;;;;;17.13;4.15;;;;;;;;;;5070792;28;20425;-90
2022/10/12 07:16:17;;;;;;;14.23;3.58;;;;;;;;;;5069120;28;20437;-88
2022/10/12 07:18:46;;;;;;;13.43;3.53;;;;;;;;;;5069307;28;20437;-89
2022/10/12 07:21:14;;;;;;;11.32;3.03;;;;;;;;;;5071732;28;20422;-86
2022/10/12 07:23:42;;;;;;;13.02;3.67;;;;;;;;;;5075205;28;20425;-88
2022/10/12 07:26:10;;;;;;;10.23;3.28;;;;;;;;;;5078039;28;20963;-89
2022/10/12 07:28:37;;;;;;;14.25;3.45;;;;;;;;;;5072842;28;20418;-90
2022/10/12 07:31:07;;;;;;;9.48;3.10;;;;;;;;;;5070051;28;20434;-89
2022/10/12 07:33:39;;;;;;;12.52;3.45;;;;;;;;;;5070328;28;20422;-90
2022/10/12 07:36:09;;;;;;;12.43;3.58;;;;;;;;;;5073738;28;20914;-89
2022/10/12 07:38:43;;;;;;;14.50;3.78;;;;;;;;;;5071238;28;20429;-91
2022/10/12 07:41:11;;;;;;;14.43;3.53;;;;;;;;;;5070747;28;20444;-89
2022/10/12 07:43:39;;;;;;;12.23;3.20;;;;;;;;;;5073618;28;20429;-89
2022/10/12 07:46:12;;;;;;;12.05;2.90;;;;;;;;;;5072334;28;20428;-90
2022/10/12 07:48:40;;;;;;;14.73;3.38;;;;;;;;;;5074383;28;20437;-90
2022/10/12 07:51:10;;;;;;;13.70;3.40;;;;;;;;;;5069058;28;20436;-87
2022/10/12 07:53:43;;;;;;;11.73;3.33;;;;;;;;;;5077412;28;20433;-89
2022/10/12 07:56:13;;;;;;;12.27;3.40;;;;;;;;;;5077714;28;20430;-90
2022/10/12 07:58:41;;;;;;;12.57;3.80;;;;;;;;;;5075004;28;21291;-88
2022/10/12 08:01:09;;;;;;;13.45;3.55;;;;;;;;;;5076307;28;20429;-89
2022/10/12 08:03:38;;;;;;;11.55;3.58;;;;;;;;;;5074647;28;20429;-88
2022/10/12 08:06:11;;;;;;;14.93;4.03;;;;;;;;;;5076637;28;20433;-88
2022/10/12 08:08:39;;;;;;;14.90;3.50;;;;;;;;;;5074833;28;20428;-89
2022/10/12 08:11:12;;;;;;;13.75;3.42;;;;;;;;;;5069924;28;20422;-90
2022/10/12 08:13:40;;;;;;;13.38;3.58;;;;;;;;;;5074466;28;20435;-88
2022/10/12 08:16:09;;;;;;;14.73;3.55;;;;;;;;;;5075987;28;20421;-90
2022/10/12 08:18:43;;;;;;;14.90;3.33;;;;;;;;;;5071772;28;20470;-89
2022/10/12 08:21:17;;;;;;;11.88;2.95;;;;;;;;;;5074866;28;20425;-90
2022/10/12 08:23:50;;;;;;;12.95;3.10;;;;;;;;;;5074702;28;20789;-90
2022/10/12 08:26:18;;;;;;;13.82;3.40;;;;;;;;;;5072889;28;20453;-90
2022/10/12 08:28:51;;;;;;;13.93;3.42;;;;;;;;;;5074838;28;20441;-88
2022/10/12 08:31:18;;;;;;;12.77;3.40;;;;;;;;;;5073127;28;20425;-91
2022/10/12 08:33:46;;;;;;;17.65;5.72;;;;;;;;;;5075859;28;20418;-90
2022/10/12 08:36:20;;;;;;;21.73;7.55;;;;;;;;;;5078237;28;20464;-90
2022/10/12 08:38:54;;;;;;;13.57;3.70;;;;;;;;;;5074418;28;20578;-90
2022/10/12 08:41:40;;;;;;;9.65;2.95;;;;;;;;;;5077556;28;20917;-92
2022/10/12 08:44:18;;;;;;;12.40;2.85;;;;;;;;;;5077958;28;20433;-91
2022/10/12 08:46:46;;;;;;;11.18;2.80;;;;;;;;;;5076306;28;20422;-90
2022/10/12 08:49:16;;;;;;;13.23;3.13;;;;;;;;;;5075613;28;20858;-87
2022/10/12 08:51:52;;;;;;;13.18;2.78;;;;;;;;;;5078707;28;20429;-87
2022/10/12 08:54:28;;;;;;;9.23;2.17;;;;;;;;;;5079796;28;20433;-91
2022/10/12 08:56:57;;;;;;;8.63;2.20;;;;;;;;;;5076959;28;20427;-87
2022/10/12 08:59:25;;;;;;;11.77;2.33;;;;;;;;;;5078242;28;21257;-88
2022/10/12 09:01:58;;;;;;;13.23;2.60;;;;;;;;;;5081164;28;20782;-91
2022/10/12 09:04:33;;;;;;;12.55;2.55;;;;;;;;;;5084114;28;20921;-90
2022/10/12 09:07:08;;;;;;;14.10;2.58;;;;;;;;;;5079994;28;20422;-90
2022/10/12 09:09:46;;;;;;;13.60;2.30;;;;;;;;;;5080859;28;20519;-90
2022/10/12 09:12:20;;;;;;;15.15;2.60;;;;;;;;;;5078881;28;21142;-91
2022/10/12 09:14:56;;;;;;;14.23;2.63;;;;;;;;;;5083063;28;21103;-88
2022/10/12 09:17:25;;;;;;;16.02;2.80;;;;;;;;;;5077979;28;20949;-87
2022/10/12 09:19:59;;;;;;;13.27;3.92;;;;;;;;;;5077965;28;20914;-88
2022/10/12 09:22:33;;;;;;;12.10;2.78;;;;;;;;;;5076817;28;20778;-89
2022/10/12 09:25:02;;;;;;;14.40;2.20;;;;;;;;;;5075154;28;20442;-89
2022/10/12 09:27:35;;;;;;;11.57;2.50;;;;;;;;;;5077888;28;20418;-89
2022/10/12 09:30:12;;;;;;;11.35;2.50;;;;;;;;;;5075142;28;20426;-86
2022/10/12 09:33:04;;;;;;;13.13;2.47;;;;;;;;;;5073227;28;20424;-87
2022/10/12 09:35:32;;;;;;;12.52;2.60;;;;;;;;;;5075892;28;20417;-86
2022/10/12 09:38:08;;;;;;;16.20;2.50;;;;;;;;;;5075724;28;21816;-86
2022/10/12 09:40:40;;;;;;;12.55;2.53;;;;;;;;;;5075186;28;20437;-88
2022/10/12 09:43:09;;;;;;;12.38;2.47;;;;;;;;;;5073227;28;20438;-88
2022/10/12 09:45:37;;;;;;;10.95;2.30;;;;;;;;;;5078174;28;20425;-89
2022/10/12 09:48:11;;;;;;;18.98;2.50;;;;;;;;;;5074547;28;20430;-89
2022/10/12 09:50:40;;;;;;;9.98;2.38;;;;;;;;;;5076984;28;20414;-87
2022/10/12 09:53:18;;;;;;;12.43;2.38;;;;;;;;;;5080845;28;20430;-88
2022/10/12 09:55:53;;;;;;;11.25;1.75;;;;;;;;;;5070067;28;20422;-88
2022/10/12 09:58:21;;;;;;;10.25;1.90;;;;;;;;;;5069712;28;20426;-87
2022/10/12 10:01:15;;;;;;;10.05;2.17;;;;;;;;;;5071871;28;20489;-89
2022/10/12 10:03:42;;;;;;;11.35;1.80;;;;;;;;;;5074983;28;20433;-88
2022/10/12 10:06:10;;;;;;;13.18;1.95;;;;;;;;;;5073423;28;20421;-87
2022/10/12 10:08:45;;;;;;;11.90;2.00;;;;;;;;;;5074676;28;20444;-87
2022/10/12 10:11:14;;;;;;;9.23;1.90;;;;;;;;;;5070431;28;20430;-87
2022/10/12 10:13:50;;;;;;;10.63;2.20;;;;;;;;;;5072638;28;20433;-87
2022/10/12 10:16:25;;;;;;;10.80;1.88;;;;;;;;;;5070983;28;20438;-85
2022/10/12 10:18:55;;;;;;;11.80;2.30;;;;;;;;;;5070606;28;21086;-86
2022/10/12 10:21:31;;;;;;;11.90;1.90;;;;;;;;;;5071858;28;20464;-87
2022/10/12 10:24:01;;;;;;;15.70;2.30;;;;;;;;;;5074300;28;20410;-86
2022/10/12 10:26:31;;;;;;;13.82;2.20;;;;;;;;;;5071865;28;21254;-85
2022/10/12 10:29:15;;;;;;;9.70;1.73;;;;;;;;;;5072309;28;20425;-86
2022/10/12 10:31:45;;;;;;;11.45;2.08;;;;;;;;;;5077098;28;20442;-87
2022/10/12 10:34:18;;;;;;;11.10;1.70;;;;;;;;;;5073182;28;20429;-88
2022/10/12 10:36:47;;;;;;;11.80;1.85;;;;;;;;;;5073374;28;21094;-87
2022/10/12 10:39:24;;;;;;;12.52;1.98;;;;;;;;;;5073325;28;20425;-86
2022/10/12 10:42:08;;;;;;;13.52;2.38;;;;;;;;;;5074280;28;20433;-88
2022/10/12 10:44:36;;;;;;;13.00;2.25;;;;;;;;;;5069349;28;20430;-88
2022/10/12 10:47:09;;;;;;;12.02;1.98;;;;;;;;;;5076157;28;20436;-86
2022/10/12 10:49:38;;;;;;;9.45;2.00;;;;;;;;;;5074680;28;20434;-89
2022/10/12 10:52:07;;;;;;;13.60;2.00;;;;;;;;;;5077757;28;20424;-86
2022/10/12 10:54:41;;;;;;;12.35;2.03;;;;;;;;;;5074567;28;21008;-86
2022/10/12 10:57:10;;;;;;;9.35;1.90;;;;;;;;;;5077475;28;20436;-86
2022/10/12 10:59:48;;;;;;;8.95;1.90;;;;;;;;;;5073416;28;20428;-87
2022/10/12 11:02:25;;;;;;;8.55;1.80;;;;;;;;;;5069945;28;20433;-88
2022/10/12 11:04:55;;;;;;;12.63;2.00;;;;;;;;;;5069013;28;20424;-84
2022/10/12 11:07:30;;;;;;;9.40;1.90;;;;;;;;;;5073608;28;20425;-87
2022/10/12 11:10:08;;;;;;;11.95;1.98;;;;;;;;;;5075583;28;20429;-89
2022/10/12 11:12:43;;;;;;;6.63;1.53;;;;;;;;;;5068814;28;20414;-86
2022/10/12 11:15:16;;;;;;;9.48;1.60;;;;;;;;;;5069780;28;21334;-87
2022/10/12 11:17:46;;;;;;;6.40;1.60;;;;;;;;;;5072575;28;20417;-87
2022/10/12 11:20:30;;;;;;;7.67;1.47;;;;;;;;;;5074644;28;20505;-87
2022/10/12 11:23:04;;;;;;;11.07;1.70;;;;;;;;;;5069819;28;20444;-87
2022/10/12 11:25:42;;;;;;;9.90;1.90;;;;;;;;;;5069629;28;20426;-86
2022/10/12 11:28:15;;;;;;;8.27;1.55;;;;;;;;;;5069133;28;20461;-85
2022/10/12 11:30:50;;;;;;;9.57;2.00;;;;;;;;;;5069940;28;20432;-87
2022/10/12 11:33:22;;;;;;;7.10;1.40;;;;;;;;;;5071303;28;20437;-87
2022/10/12 11:35:51;;;;;;;8.30;1.60;;;;;;;;;;5075586;28;20421;-88
2022/10/12 11:38:28;;;;;;;8.38;1.38;;;;;;;;;;5070056;28;20441;-87
2022/10/12 11:40:59;;;;;;;6.60;1.48;;;;;;;;;;5074243;28;21689;-87
2022/10/12 11:43:30;;;;;;;8.85;1.35;;;;;;;;;;5072582;28;20451;-86
2022/10/12 11:46:01;;;;;;;7.95;1.67;;;;;;;;;;5069308;28;20418;-88
2022/10/12 11:48:36;;;;;;;10.02;1.95;;;;;;;;;;5073061;28;20789;-88
2022/10/12 11:51:11;;;;;;;7.90;1.90;;;;;;;;;;5073593;28;20410;-88
2022/10/12 11:53:43;;;;;;;7.33;1.30;;;;;;;;;;5069808;28;20944;-87
2022/10/12 11:56:14;;;;;;;11.63;1.60;;;;;;;;;;5074739;28;20425;-85
2022/10/12 11:58:43;;;;;;;8.43;1.60;;;;;;;;;;5074292;28;20438;-87
2022/10/12 12:01:28;;;;;;;10.30;1.60;;;;;;;;;;5072928;28;20444;-87
2022/10/12 12:04:14;;;;;;;5.85;1.33;;;;;;;;;;5069670;28;20421;-85
2022/10/12 12:06:57;;;;;;;5.37;1.20;;;;;;;;;;5069686;28;20430;-87
2022/10/12 12:09:33;;;;;;;7.57;1.48;;;;;;;;;;5071621;28;20425;-88
2022/10/12 12:12:22;;;;;;;5.72;1.20;;;;;;;;;;5070537;28;20906;-86
2022/10/12 12:15:08;;;;;;;6.38;1.20;;;;;;;;;;5074299;28;20436;-86
2022/10/12 12:17:37;;;;;;;5.00;1.30;;;;;;;;;;5072735;28;20414;-87
2022/10/12 12:20:31;;;;;;;4.77;1.03;;;;;;;;;;5070126;28;20429;-84
2022/10/12 12:22:59;;;;;;;7.70;1.50;;;;;;;;;;5027509;28;20426;-87
2022/10/12 12:25:32;;;;;;;8.68;1.42;;;;;;;;;;5069349;28;20414;-82
2022/10/12 12:28:18;;;;;;;8.70;1.13;;;;;;;;;;5073154;28;20421;-83
2022/10/12 12:30:56;;;;;;;6.07;1.10;;;;;;;;;;5087724;28;20438;-87
2022/10/12 12:33:30;;;;;;;12.70;4.07;;;;;;;;;;5072157;28;21759;-84
2022/10/12 12:36:04;;;;;;;7.10;1.30;;;;;;;;;;5068397;28;21463;-85
2022/10/12 12:38:38;;;;;;;6.68;1.55;;;;;;;;;;5069837;28;20437;-85
2022/10/12 12:41:07;;;;;;;8.05;1.40;;;;;;;;;;5071907;28;20433;-82
2022/10/12 12:43:39;;;;;;;5.18;1.27;;;;;;;;;;5072875;28;20425;-83
2022/10/12 12:46:09;;;;;;;8.23;1.42;;;;;;;;;;5072568;28;20426;-82
2022/10/12 12:49:01;;;;;;;11.27;1.60;;;;;;;;;;5071210;28;20932;-84
2022/10/12 12:51:39;;;;;;;8.18;1.40;;;;;;;;;;5072604;28;20442;-81
2022/10/12 12:54:12;;;;;;;7.57;1.67;;;;;;;;;;5075511;28;20452;-82
2022/10/12 12:56:51;;;;;;;5.72;1.45;;;;;;;;;;5073166;28;20418;-83
2022/10/12 12:59:41;;;;;;;6.30;1.13;;;;;;;;;;5073567;28;21869;-85
2022/10/12 13:02:17;;;;;;;8.25;1.83;;;;;;;;;;5068960;28;21173;-85
2022/10/12 13:05:18;;;;;;;4.90;1.30;;;;;;;;;;5074322;28;20901;-83
2022/10/12 13:07:57;;;;;;;9.10;1.67;;;;;;;;;;5064643;28;20899;-84
2022/10/12 13:10:37;;;;;;;8.07;1.77;;;;;;;;;;5065560;28;20422;-84
2022/10/12 13:13:11;;;;;;;6.85;1.60;;;;;;;;;;5065579;28;20430;-84
2022/10/12 13:15:52;;;;;;;7.88;1.70;;;;;;;;;;5073873;28;20426;-86
2022/10/12 13:18:37;;;;;;;7.40;1.85;;;;;;;;;;5069314;28;20429;-85
2022/10/12 13:21:14;;;;;;;7.47;1.55;;;;;;;;;;5069866;28;20421;-85
2022/10/12 13:23:48;;;;;;;7.18;1.70;;;;;;;;;;5064866;28;20430;-84
2022/10/12 13:26:18;;;;;;;9.80;1.85;;;;;;;;;;5065950;28;20429;-84
2022/10/12 13:28:52;;;;;;;8.85;2.00;;;;;;;;;;5064961;28;20429;-84
2022/10/12 13:31:31;;;;;;;7.57;1.43;;;;;;;;;;5064819;28;20766;-84
2022/10/12 13:34:01;;;;;;;6.05;1.25;;;;;;;;;;5071293;28;20434;-84
2022/10/12 13:36:29;;;;;;;9.70;1.75;;;;;;;;;;5065928;28;20999;-84
2022/10/12 13:39:08;;;;;;;9.15;1.65;;;;;;;;;;5063627;28;20434;-84
2022/10/12 13:41:35;;;;;;;8.55;1.25;;;;;;;;;;5065141;28;20424;-85
2022/10/12 13:44:19;;;;;;;8.10;1.50;;;;;;;;;;5071328;28;20786;-85
2022/10/12 13:46:55;;;;;;;10.05;1.88;;;;;;;;;;5067062;28;20425;-84
2022/10/12 13:49:24;;;;;;;9.68;2.00;;;;;;;;;;5064161;28;20687;-85
2022/10/12 13:51:53;;;;;;;8.55;1.60;;;;;;;;;;5065710;28;20440;-84
2022/10/12 13:54:22;;;;;;;8.98;1.55;;;;;;;;;;5066056;28;20422;-85
2022/10/12 13:56:56;;;;;;;9.85;1.58;;;;;;;;;;5067270;28;20421;-83
2022/10/12 13:59:33;;;;;;;10.88;3.33;;;;;;;;;;5066550;28;20430;-85
2022/10/12 14:02:16;;;;;;;10.20;3.00;;;;;;;;;;5068084;28;20441;-85
2022/10/12 14:04:52;;;;;;;6.78;1.63;;;;;;;;;;5068017;28;20425;-85
2022/10/12 14:07:26;;;;;;;7.82;1.52;;;;;;;;;;5064308;28;21124;-85
2022/10/12 14:10:00;;;;;;;9.95;1.65;;;;;;;;;;5067785;28;20430;-85
2022/10/12 14:12:34;;;;;;;7.88;1.60;;;;;;;;;;5069342;28;20422;-84
2022/10/12 14:15:07;;;;;;;10.77;1.67;;;;;;;;;;5072294;28;20945;-85
2022/10/12 14:17:43;;;;;;;8.35;1.65;;;;;;;;;;5072088;28;20413;-85
2022/10/12 14:20:16;;;;;;;6.57;1.60;;;;;;;;;;5070773;28;20422;-85
2022/10/12 14:22:46;;;;;;;9.55;1.75;;;;;;;;;;5070235;28;20424;-82
2022/10/12 14:25:20;;;;;;;8.57;1.80;;;;;;;;;;5071294;28;20894;-83
2022/10/12 14:27:53;;;;;;;6.32;1.50;;;;;;;;;;5072725;28;20458;-85
2022/10/12 14:30:22;;;;;;;8.10;1.70;;;;;;;;;;5069464;28;21140;-83
2022/10/12 14:33:08;;;;;;;12.30;2.03;;;;;;;;;;5068281;28;21145;-84
2022/10/12 14:35:45;;;;;;;6.80;1.80;;;;;;;;;;5075243;28;20426;-84
2022/10/12 14:38:36;;;;;;;8.05;1.98;;;;;;;;;;5071442;28;20426;-83
2022/10/12 14:41:19;;;;;;;8.68;1.90;;;;;;;;;;5068939;28;20430;-84
2022/10/12 14:44:02;;;;;;;9.20;1.70;;;;;;;;;;5057777;28;20759;-84
2022/10/12 14:46:30;;;;;;;13.07;2.00;;;;;;;;;;5067800;28;20433;-82
2022/10/12 14:49:04;;;;;;;5.78;1.55;;;;;;;;;;5059601;28;20435;-82
2022/10/12 14:51:32;;;;;;;8.33;1.90;;;;;;;;;;5061526;28;20426;-82
2022/10/12 14:54:00;;;;;;;9.88;1.90;;;;;;;;;;5064937;28;20433;-85
2022/10/12 14:56:33;;;;;;;7.80;1.75;;;;;;;;;;5044830;28;20425;-84
2022/10/12 14:59:06;;;;;;;8.77;1.88;;;;;;;;;;5065101;28;21378;-82
2022/10/12 15:01:34;;;;;;;10.25;2.08;;;;;;;;;;5071412;28;20449;-84
2022/10/12 15:04:08;;;;;;;10.23;1.90;;;;;;;;;;5073953;28;20426;-85
2022/10/12 15:06:41;;;;;;;7.22;2.13;;;;;;;;;;5067642;28;20449;-86
2022/10/12 15:09:09;;;;;;;8.27;1.90;;;;;;;;;;5068360;28;20418;-86